Time;durP1;ratioP1;P1;durP2;ratioP2;P2;SDS_P1;SDS_P2;PMS_P1;PMS_P2;Temp;Humidity;BMP_temperature;BMP_pressure;BME280_temperature;BME280_humidity;BME280_pressure;Samples;Min_cycle;Max_cycle;Signal;HPM_P1;HPM_P2
2022/05/01 00:02:15;;;;;;;24.98;13.48;;;;;;;;;;1691180;84;21120;-78
2022/05/01 00:04:41;;;;;;;30.57;13.83;;;;;;;;;;1676628;84;21061;-78
2022/05/01 00:07:12;;;;;;;29.35;14.95;;;;;;;;;;1711745;84;21024;-77
2022/05/01 00:09:37;;;;;;;24.82;12.68;;;;;;;;;;1719251;83;21087;-77
2022/05/01 00:12:04;;;;;;;24.25;13.00;;;;;;;;;;1715097;83;21578;-78
2022/05/01 00:14:30;;;;;;;28.07;13.88;;;;;;;;;;1696471;84;21554;-78
2022/05/01 00:16:57;;;;;;;26.87;13.03;;;;;;;;;;1696154;84;21544;-77
2022/05/01 00:19:23;;;;;;;24.05;13.20;;;;;;;;;;1696438;84;21072;-77
2022/05/01 00:21:49;;;;;;;23.40;12.15;;;;;;;;;;1686806;85;21012;-77
2022/05/01 00:24:16;;;;;;;23.40;12.28;;;;;;;;;;1723027;83;21074;-80
2022/05/01 00:26:45;;;;;;;25.08;12.75;;;;;;;;;;1707243;83;21067;-79
2022/05/01 00:29:12;;;;;;;27.52;13.20;;;;;;;;;;1679336;85;21088;-79
2022/05/01 00:31:39;;;;;;;29.12;13.65;;;;;;;;;;1696312;84;21004;-78
2022/05/01 00:36:50;;;;;;;24.00;12.65;;;;;;;;;;1696331;84;21086;-79
2022/05/01 00:39:16;;;;;;;24.47;12.23;;;;;;;;;;1694579;85;21542;-76
2022/05/01 00:41:43;;;;;;;22.95;11.15;;;;;;;;;;1707313;83;21071;-77
2022/05/01 00:44:11;;;;;;;27.90;13.28;;;;;;;;;;1688916;84;21089;-78
2022/05/01 00:46:41;;;;;;;23.05;12.50;;;;;;;;;;1695951;84;21034;-78
2022/05/01 00:49:08;;;;;;;22.95;11.93;;;;;;;;;;1725798;83;21010;-78
2022/05/01 00:51:38;;;;;;;26.87;12.15;;;;;;;;;;1713345;84;21528;-78
2022/05/01 00:54:07;;;;;;;29.05;13.03;;;;;;;;;;1707762;84;21053;-78
2022/05/01 00:56:34;;;;;;;28.30;13.13;;;;;;;;;;1663476;85;21120;-79
2022/05/01 00:59:00;;;;;;;28.00;14.03;;;;;;;;;;1695180;83;21679;-79
2022/05/01 01:04:16;;;;;;;26.57;13.03;;;;;;;;;;1773722;79;21049;-78
2022/05/01 01:06:42;;;;;;;22.90;12.47;;;;;;;;;;1791582;79;21549;-79
2022/05/01 01:09:09;;;;;;;24.60;12.73;;;;;;;;;;1793992;79;21586;-79
2022/05/01 01:11:36;;;;;;;29.72;12.95;;;;;;;;;;1801904;79;20982;-77
2022/05/01 01:14:05;;;;;;;28.98;15.05;;;;;;;;;;1801711;80;21041;-77
2022/05/01 01:16:32;;;;;;;27.87;14.60;;;;;;;;;;1789538;79;20992;-78
2022/05/01 01:18:58;;;;;;;26.65;12.78;;;;;;;;;;1781087;79;21097;-79
2022/05/01 01:21:25;;;;;;;24.15;12.80;;;;;;;;;;1783358;80;21069;-79
2022/05/01 01:23:54;;;;;;;27.42;12.47;;;;;;;;;;1801922;79;21022;-80
2022/05/01 01:26:22;;;;;;;29.95;14.83;;;;;;;;;;1801558;79;21015;-79
2022/05/01 01:28:47;;;;;;;26.07;13.22;;;;;;;;;;1794680;79;21034;-78
2022/05/01 01:33:59;;;;;;;22.13;12.35;;;;;;;;;;1785702;80;21086;-80
2022/05/01 01:36:27;;;;;;;26.82;13.13;;;;;;;;;;1788612;79;21064;-80
2022/05/01 01:38:54;;;;;;;23.22;11.95;;;;;;;;;;1783568;79;21015;-79
2022/05/01 01:41:22;;;;;;;23.35;13.40;;;;;;;;;;1792917;79;21014;-79
2022/05/01 01:43:48;;;;;;;24.60;12.90;;;;;;;;;;1792978;79;21477;-79
2022/05/01 01:46:15;;;;;;;20.75;11.65;;;;;;;;;;1801301;80;21060;-79
2022/05/01 01:48:41;;;;;;;26.12;12.23;;;;;;;;;;1801886;79;21037;-79
2022/05/01 01:51:07;;;;;;;24.72;12.80;;;;;;;;;;1800138;80;21037;-79
2022/05/01 01:53:34;;;;;;;25.40;12.65;;;;;;;;;;1801902;79;21072;-79
2022/05/01 01:56:00;;;;;;;24.70;12.78;;;;;;;;;;1801543;79;21056;-79
2022/05/01 01:58:27;;;;;;;25.30;12.28;;;;;;;;;;1799499;80;21049;-80
2022/05/01 02:00:53;;;;;;;28.95;13.55;;;;;;;;;;1786975;80;21027;-78
2022/05/01 02:03:20;;;;;;;24.72;13.13;;;;;;;;;;1778178;80;21652;-79
2022/05/01 02:05:47;;;;;;;23.30;12.80;;;;;;;;;;1759679;81;21098;-78
2022/05/01 02:08:13;;;;;;;24.57;12.80;;;;;;;;;;1775949;81;21072;-78
2022/05/01 02:10:39;;;;;;;24.77;13.53;;;;;;;;;;1775646;80;21034;-78
2022/05/01 02:13:06;;;;;;;29.98;14.38;;;;;;;;;;1775927;80;21002;-78
2022/05/01 02:15:33;;;;;;;31.48;14.20;;;;;;;;;;1775573;80;21051;-78
2022/05/01 02:18:01;;;;;;;24.25;13.18;;;;;;;;;;1775926;81;21084;-78
2022/05/01 02:20:27;;;;;;;24.47;12.28;;;;;;;;;;1775532;81;21056;-79
2022/05/01 02:22:54;;;;;;;27.27;13.38;;;;;;;;;;1775657;81;21021;-79
2022/05/01 02:25:24;;;;;;;25.15;12.35;;;;;;;;;;1775801;81;21052;-79
2022/05/01 02:27:48;;;;;;;23.95;12.45;;;;;;;;;;1771281;79;21081;-79
2022/05/01 02:30:14;;;;;;;22.60;12.60;;;;;;;;;;1751603;81;21118;-79
2022/05/01 02:32:41;;;;;;;21.62;12.23;;;;;;;;;;1746431;79;21031;-79
2022/05/01 02:35:10;;;;;;;21.42;12.93;;;;;;;;;;1775746;81;21549;-79
2022/05/01 02:37:36;;;;;;;20.75;11.80;;;;;;;;;;1775667;81;21104;-79
2022/05/01 02:40:02;;;;;;;20.12;11.75;;;;;;;;;;1775630;81;21124;-78
2022/05/01 02:42:29;;;;;;;26.07;12.35;;;;;;;;;;1775865;81;21093;-79
2022/05/01 02:44:56;;;;;;;24.70;12.58;;;;;;;;;;1775586;81;21075;-79
2022/05/01 02:47:22;;;;;;;22.42;12.00;;;;;;;;;;1775921;80;21006;-79
2022/05/01 02:49:49;;;;;;;23.45;12.10;;;;;;;;;;1775887;80;21073;-79
2022/05/01 02:52:16;;;;;;;22.22;11.53;;;;;;;;;;1775738;81;21017;-78
2022/05/01 02:54:42;;;;;;;26.25;12.43;;;;;;;;;;1775892;80;21045;-79
2022/05/01 02:57:08;;;;;;;24.82;12.20;;;;;;;;;;1775804;81;21025;-80
2022/05/01 02:59:34;;;;;;;20.50;11.35;;;;;;;;;;1775882;80;21049;-79
2022/05/01 03:02:01;;;;;;;21.10;12.00;;;;;;;;;;1775753;80;20999;-79
2022/05/01 03:04:27;;;;;;;22.35;11.85;;;;;;;;;;1774145;80;21164;-79
2022/05/01 03:06:53;;;;;;;25.25;13.25;;;;;;;;;;1770745;81;21031;-79
2022/05/01 03:09:19;;;;;;;21.87;12.47;;;;;;;;;;1770541;81;21035;-78
2022/05/01 03:11:47;;;;;;;22.35;11.93;;;;;;;;;;1770975;80;20999;-80
2022/05/01 03:14:13;;;;;;;23.80;12.58;;;;;;;;;;1770953;80;21585;-81
2022/05/01 03:16:40;;;;;;;24.35;13.38;;;;;;;;;;1770770;81;21056;-80
2022/05/01 03:24:38;;;;;;;22.55;12.65;;;;;;;;;;1770814;81;21072;-79
2022/05/01 03:27:05;;;;;;;24.40;12.07;;;;;;;;;;1770864;80;21564;-80
2022/05/01 03:29:33;;;;;;;21.12;11.93;;;;;;;;;;1770983;81;21108;-80
2022/05/01 03:31:59;;;;;;;25.50;13.48;;;;;;;;;;1770766;81;21047;-78
2022/05/01 03:34:26;;;;;;;23.15;12.45;;;;;;;;;;1770931;81;21030;-78
2022/05/01 03:36:56;;;;;;;24.35;12.63;;;;;;;;;;1771067;80;21026;-78
2022/05/01 03:39:22;;;;;;;22.52;11.83;;;;;;;;;;1770914;81;21100;-78
2022/05/01 03:41:48;;;;;;;23.00;13.45;;;;;;;;;;1771095;81;21585;-78
2022/05/01 03:44:15;;;;;;;25.27;13.05;;;;;;;;;;1770787;80;21553;-79
2022/05/01 03:46:41;;;;;;;25.85;13.25;;;;;;;;;;1771107;81;21037;-78
2022/05/01 03:49:09;;;;;;;23.95;14.13;;;;;;;;;;1770929;81;21030;-79
2022/05/01 03:51:35;;;;;;;31.40;16.02;;;;;;;;;;1760326;81;20998;-81
2022/05/01 03:54:02;;;;;;;25.32;14.60;;;;;;;;;;1771108;81;20973;-80
2022/05/01 03:56:30;;;;;;;25.27;14.45;;;;;;;;;;1771236;81;21074;-80
2022/05/01 03:58:57;;;;;;;22.20;14.73;;;;;;;;;;1770813;81;21107;-81
2022/05/01 04:01:24;;;;;;;25.75;15.00;;;;;;;;;;1770832;80;21272;-80
2022/05/01 04:03:51;;;;;;;23.02;14.87;;;;;;;;;;1771176;80;21038;-80
2022/05/01 04:06:17;;;;;;;25.72;16.20;;;;;;;;;;1770672;80;21116;-80
2022/05/01 04:08:44;;;;;;;28.77;15.35;;;;;;;;;;1770407;81;21124;-79
2022/05/01 04:11:10;;;;;;;24.27;16.93;;;;;;;;;;1770303;81;21089;-79
2022/05/01 04:13:38;;;;;;;25.85;15.55;;;;;;;;;;1770404;81;21068;-79
2022/05/01 04:16:05;;;;;;;24.20;16.32;;;;;;;;;;1770047;81;21062;-80
2022/05/01 04:18:34;;;;;;;22.85;15.08;;;;;;;;;;1792424;79;21064;-79
2022/05/01 04:21:01;;;;;;;22.40;15.25;;;;;;;;;;1714219;83;21544;-79
2022/05/01 04:23:27;;;;;;;23.00;15.55;;;;;;;;;;1718524;83;21037;-79
2022/05/01 04:25:54;;;;;;;21.45;14.55;;;;;;;;;;1718175;83;21060;-81
2022/05/01 04:28:21;;;;;;;22.62;14.60;;;;;;;;;;1770216;81;21062;-79
2022/05/01 04:30:50;;;;;;;25.27;14.25;;;;;;;;;;1770326;81;21045;-79
2022/05/01 04:33:15;;;;;;;22.70;13.68;;;;;;;;;;1771188;81;21056;-80
2022/05/01 04:35:45;;;;;;;23.55;14.85;;;;;;;;;;1770248;81;21046;-79
2022/05/01 04:38:17;;;;;;;22.93;15.38;;;;;;;;;;1770061;81;21006;-79
2022/05/01 04:40:46;;;;;;;24.57;14.03;;;;;;;;;;1769962;81;21025;-80
2022/05/01 04:43:13;;;;;;;22.13;14.25;;;;;;;;;;1770762;81;21045;-80
2022/05/01 04:45:40;;;;;;;21.48;14.35;;;;;;;;;;1770161;81;21037;-83
2022/05/01 04:48:07;;;;;;;24.43;15.00;;;;;;;;;;1770465;81;21070;-84
2022/05/01 04:50:33;;;;;;;20.35;11.55;;;;;;;;;;1770594;81;21224;-85
2022/05/01 04:53:01;;;;;;;18.07;12.03;;;;;;;;;;1770784;81;21011;-80
2022/05/01 04:55:28;;;;;;;18.00;12.10;;;;;;;;;;1772238;81;21474;-81
2022/05/01 04:57:54;;;;;;;17.40;11.45;;;;;;;;;;1770484;81;21070;-80
2022/05/01 05:00:21;;;;;;;18.48;11.73;;;;;;;;;;1770471;81;21066;-80
2022/05/01 05:02:49;;;;;;;15.30;10.72;;;;;;;;;;1770183;81;21062;-80
2022/05/01 05:05:15;;;;;;;16.93;11.05;;;;;;;;;;1770257;80;21084;-80
2022/05/01 05:07:42;;;;;;;16.60;11.10;;;;;;;;;;1771057;81;21532;-79
2022/05/01 05:10:09;;;;;;;14.47;10.60;;;;;;;;;;1770584;80;21062;-79
2022/05/01 05:12:36;;;;;;;17.25;11.65;;;;;;;;;;1771190;81;21535;-80
2022/05/01 05:15:09;;;;;;;16.93;10.32;;;;;;;;;;1771003;81;21069;-81
2022/05/01 05:17:35;;;;;;;15.30;10.20;;;;;;;;;;1740494;82;21569;-79
2022/05/01 05:20:01;;;;;;;17.37;10.70;;;;;;;;;;1762161;81;21002;-81
2022/05/01 05:22:27;;;;;;;14.40;9.93;;;;;;;;;;1770669;81;21025;-81
2022/05/01 05:24:53;;;;;;;12.73;9.00;;;;;;;;;;1729338;83;21021;-80
2022/05/01 05:27:21;;;;;;;11.10;8.05;;;;;;;;;;1694804;84;21073;-81
2022/05/01 05:29:48;;;;;;;10.55;7.03;;;;;;;;;;1717425;82;21034;-81
2022/05/01 05:32:14;;;;;;;8.33;6.22;;;;;;;;;;1699330;84;22129;-81
2022/05/01 05:34:40;;;;;;;9.93;5.97;;;;;;;;;;1707444;83;21091;-81
2022/05/01 05:37:06;;;;;;;7.72;4.95;;;;;;;;;;1771228;81;21072;-80
2022/05/01 05:39:32;;;;;;;5.70;4.30;;;;;;;;;;1729564;82;21034;-81
2022/05/01 05:41:59;;;;;;;5.42;3.98;;;;;;;;;;1682663;85;21003;-81
2022/05/01 05:44:26;;;;;;;6.22;4.08;;;;;;;;;;1713342;82;21403;-82
2022/05/01 05:46:52;;;;;;;5.60;4.22;;;;;;;;;;1716512;84;21075;-82
2022/05/01 05:49:18;;;;;;;5.10;3.67;;;;;;;;;;1730287;83;21533;-82
2022/05/01 05:51:44;;;;;;;5.60;3.70;;;;;;;;;;1729803;83;21600;-81
2022/05/01 05:54:11;;;;;;;3.67;2.80;;;;;;;;;;1688581;85;21606;-81
2022/05/01 05:56:37;;;;;;;4.92;3.22;;;;;;;;;;1729847;83;21003;-81
2022/05/01 05:59:03;;;;;;;5.15;3.30;;;;;;;;;;1771725;81;21066;-79
2022/05/01 06:01:29;;;;;;;4.08;2.80;;;;;;;;;;1773699;81;21080;-80
2022/05/01 06:03:56;;;;;;;5.70;3.40;;;;;;;;;;1738610;81;21119;-80
2022/05/01 06:06:22;;;;;;;3.17;2.65;;;;;;;;;;1730253;82;21070;-81
2022/05/01 06:08:48;;;;;;;3.47;2.70;;;;;;;;;;1729719;83;21038;-81
2022/05/01 06:11:15;;;;;;;4.92;3.05;;;;;;;;;;1729004;81;21029;-80
2022/05/01 06:13:42;;;;;;;4.45;3.08;;;;;;;;;;1728061;82;21099;-81
2022/05/01 06:16:08;;;;;;;3.90;3.00;;;;;;;;;;1738888;81;21660;-79
2022/05/01 06:18:35;;;;;;;6.03;2.90;;;;;;;;;;1764854;81;21074;-79
2022/05/01 06:21:01;;;;;;;6.40;2.72;;;;;;;;;;1763459;81;21014;-78
2022/05/01 06:25:43;;;;;;;4.60;2.90;;;;;;;;;;1791057;79;22723;-79
2022/05/01 06:28:10;;;;;;;3.85;2.70;;;;;;;;;;1759535;81;21032;-83
2022/05/01 06:30:40;;;;;;;3.67;2.70;;;;;;;;;;1758937;81;21068;-82
2022/05/01 06:33:07;;;;;;;3.58;2.50;;;;;;;;;;1759297;81;20988;-81
2022/05/01 06:35:34;;;;;;;4.03;2.45;;;;;;;;;;1772335;80;21079;-82
2022/05/01 06:38:01;;;;;;;4.37;2.47;;;;;;;;;;1793626;80;21061;-82
2022/05/01 06:40:27;;;;;;;4.45;2.40;;;;;;;;;;1793279;80;21012;-83
2022/05/01 06:42:53;;;;;;;3.50;2.52;;;;;;;;;;1791564;80;21031;-83
2022/05/01 06:45:19;;;;;;;4.55;2.50;;;;;;;;;;1763438;80;20976;-82
2022/05/01 06:47:45;;;;;;;4.00;2.60;;;;;;;;;;1796014;78;20997;-82
2022/05/01 06:50:11;;;;;;;3.62;2.62;;;;;;;;;;1797437;80;21068;-83
2022/05/01 06:52:38;;;;;;;6.05;2.92;;;;;;;;;;1780879;80;21039;-82
2022/05/01 06:55:05;;;;;;;4.03;2.70;;;;;;;;;;1760279;82;20996;-83
2022/05/01 06:57:31;;;;;;;3.60;2.70;;;;;;;;;;1790099;80;20989;-84
2022/05/01 06:59:57;;;;;;;4.80;3.12;;;;;;;;;;1758215;80;21009;-84
2022/05/01 07:02:23;;;;;;;5.45;2.75;;;;;;;;;;1780271;80;21005;-84
2022/05/01 07:04:49;;;;;;;5.58;2.60;;;;;;;;;;1767737;80;21099;-84
2022/05/01 07:07:15;;;;;;;21.10;4.28;;;;;;;;;;1766338;80;21662;-83
2022/05/01 07:09:42;;;;;;;8.65;2.90;;;;;;;;;;1765754;81;21040;-82
2022/05/01 07:12:10;;;;;;;2.75;2.05;;;;;;;;;;1765733;81;21087;-82
2022/05/01 07:14:38;;;;;;;2.92;2.37;;;;;;;;;;1766060;81;21100;-83
2022/05/01 07:17:05;;;;;;;3.35;2.30;;;;;;;;;;1765379;81;21103;-83
2022/05/01 07:19:31;;;;;;;3.50;2.60;;;;;;;;;;1766608;77;20968;-82
2022/05/01 07:21:57;;;;;;;2.98;2.22;;;;;;;;;;1736984;81;20995;-84
2022/05/01 07:24:24;;;;;;;2.83;2.10;;;;;;;;;;1727182;81;21055;-84
2022/05/01 07:26:50;;;;;;;3.45;2.22;;;;;;;;;;1717437;82;21043;-85
2022/05/01 07:29:16;;;;;;;2.20;1.85;;;;;;;;;;1717084;82;21085;-81
2022/05/01 07:31:42;;;;;;;3.40;2.12;;;;;;;;;;1724715;82;21021;-83
2022/05/01 07:34:10;;;;;;;3.33;1.87;;;;;;;;;;1750794;81;21040;-84
2022/05/01 07:36:38;;;;;;;25.62;3.30;;;;;;;;;;1748460;82;21081;-84
2022/05/01 07:39:04;;;;;;;3.87;2.20;;;;;;;;;;1748943;80;21045;-83
2022/05/01 07:41:30;;;;;;;3.27;2.60;;;;;;;;;;1748299;82;21077;-83
2022/05/01 07:43:56;;;;;;;3.40;2.30;;;;;;;;;;1748727;80;21053;-83
2022/05/01 07:46:23;;;;;;;3.27;2.10;;;;;;;;;;1748209;82;21081;-81
2022/05/01 07:48:49;;;;;;;2.77;2.25;;;;;;;;;;1748407;82;21060;-82
2022/05/01 07:51:15;;;;;;;5.67;2.75;;;;;;;;;;1748862;82;21064;-82
2022/05/01 07:53:42;;;;;;;3.50;2.47;;;;;;;;;;1748415;82;21021;-83
2022/05/01 07:56:08;;;;;;;8.08;3.90;;;;;;;;;;1748703;82;21045;-83
2022/05/01 07:58:35;;;;;;;3.25;2.20;;;;;;;;;;1748577;82;21065;-82
2022/05/01 08:01:03;;;;;;;5.35;2.98;;;;;;;;;;1748614;82;21025;-83
2022/05/01 08:06:13;;;;;;;4.33;2.62;;;;;;;;;;1748463;82;21068;-81
2022/05/01 08:08:41;;;;;;;3.15;2.40;;;;;;;;;;1748682;82;21049;-81
2022/05/01 08:11:08;;;;;;;3.17;2.17;;;;;;;;;;1748038;82;21064;-81
2022/05/01 08:13:35;;;;;;;15.63;3.10;;;;;;;;;;1748294;82;21133;-80
2022/05/01 08:16:02;;;;;;;6.25;2.60;;;;;;;;;;1748201;82;21061;-83
2022/05/01 08:21:13;;;;;;;2.75;2.37;;;;;;;;;;1748157;82;21116;-80
2022/05/01 08:23:39;;;;;;;3.77;2.27;;;;;;;;;;1747936;82;21883;-82
2022/05/01 08:26:06;;;;;;;3.37;2.50;;;;;;;;;;1755498;82;21092;-82
2022/05/01 08:28:34;;;;;;;2.77;2.15;;;;;;;;;;1756115;81;21567;-81
2022/05/01 08:31:00;;;;;;;3.45;2.10;;;;;;;;;;1756026;82;22085;-82
2022/05/01 08:33:27;;;;;;;4.87;2.40;;;;;;;;;;1756129;81;21119;-78
2022/05/01 08:35:54;;;;;;;3.67;2.20;;;;;;;;;;1755581;82;21503;-80
2022/05/01 08:38:20;;;;;;;2.92;2.00;;;;;;;;;;1755988;81;21599;-79
2022/05/01 08:40:47;;;;;;;3.20;2.22;;;;;;;;;;1755784;82;21103;-80
2022/05/01 08:43:14;;;;;;;3.52;2.22;;;;;;;;;;1755631;81;21033;-78
2022/05/01 08:45:45;;;;;;;4.00;2.33;;;;;;;;;;1755126;81;21099;-78
2022/05/01 08:48:12;;;;;;;3.60;1.90;;;;;;;;;;1753222;81;21025;-81
2022/05/01 08:50:38;;;;;;;3.40;2.20;;;;;;;;;;1758452;81;21560;-80
2022/05/01 08:53:05;;;;;;;6.25;2.12;;;;;;;;;;1756043;82;21064;-80
2022/05/01 08:55:31;;;;;;;3.35;2.50;;;;;;;;;;1755884;82;20993;-80
2022/05/01 08:57:59;;;;;;;3.02;2.30;;;;;;;;;;1745442;81;21484;-81
2022/05/01 09:00:28;;;;;;;3.70;2.42;;;;;;;;;;1723493;82;21080;-80
2022/05/01 09:02:56;;;;;;;2.77;2.10;;;;;;;;;;1729875;82;21128;-80
2022/05/01 09:05:22;;;;;;;3.30;2.37;;;;;;;;;;1755729;82;21040;-79
2022/05/01 09:07:48;;;;;;;3.05;2.25;;;;;;;;;;1756068;82;21072;-79
2022/05/01 09:10:14;;;;;;;3.77;2.50;;;;;;;;;;1755924;82;22203;-80
2022/05/01 09:12:50;;;;;;;4.33;2.40;;;;;;;;;;1756323;82;21071;-80
2022/05/01 09:15:29;;;;;;;4.30;2.45;;;;;;;;;;1720229;83;21030;-80
2022/05/01 09:18:03;;;;;;;3.80;2.50;;;;;;;;;;1720081;83;21014;-79
2022/05/01 09:20:29;;;;;;;;;;;;;;;;;;1722304;83;21082;-81
2022/05/01 09:22:55;;;;;;;5.70;2.75;;;;;;;;;;1688076;85;20110;-80
2022/05/01 09:25:29;;;;;;;3.83;2.30;;;;;;;;;;1685515;84;21023;-81
2022/05/01 09:27:56;;;;;;;5.37;2.40;;;;;;;;;;1669661;84;21053;-80
2022/05/01 09:30:22;;;;;;;4.03;2.33;;;;;;;;;;1671407;85;21134;-80
2022/05/01 09:32:48;;;;;;;2.70;2.17;;;;;;;;;;1663829;85;21089;-79
2022/05/01 09:35:17;;;;;;;3.37;2.30;;;;;;;;;;1748157;82;21088;-80
2022/05/01 09:37:44;;;;;;;4.45;2.50;;;;;;;;;;1739254;82;21029;-78
2022/05/01 09:40:10;;;;;;;3.92;2.22;;;;;;;;;;1747945;82;21520;-78
2022/05/01 09:42:36;;;;;;;4.45;2.62;;;;;;;;;;1747024;82;21647;-78
2022/05/01 09:45:06;;;;;;;4.92;2.92;;;;;;;;;;1747716;82;21057;-78
2022/05/01 09:47:36;;;;;;;2.95;2.33;;;;;;;;;;1747973;82;21560;-78
2022/05/01 09:50:05;;;;;;;4.45;2.87;;;;;;;;;;1748395;81;21049;-79
2022/05/01 09:52:50;;;;;;;4.70;2.60;;;;;;;;;;1747905;82;21009;-79
2022/05/01 09:55:16;;;;;;;4.65;2.50;;;;;;;;;;1747834;82;21574;-78
2022/05/01 09:57:42;;;;;;;4.37;2.67;;;;;;;;;;1748042;82;21025;-78
2022/05/01 10:00:10;;;;;;;4.72;2.60;;;;;;;;;;1747783;82;21068;-79
2022/05/01 10:02:39;;;;;;;4.92;2.85;;;;;;;;;;1711894;84;21608;-78
2022/05/01 10:05:06;;;;;;;4.17;3.00;;;;;;;;;;1698755;84;21063;-78
2022/05/01 10:07:34;;;;;;;5.08;3.05;;;;;;;;;;1747937;82;21615;-77
2022/05/01 10:10:02;;;;;;;4.50;3.17;;;;;;;;;;1745619;81;21024;-79
2022/05/01 10:12:28;;;;;;;5.55;3.17;;;;;;;;;;1716561;83;21080;-79
2022/05/01 10:14:55;;;;;;;4.30;2.77;;;;;;;;;;1716885;83;21229;-80
2022/05/01 10:17:21;;;;;;;3.98;2.90;;;;;;;;;;1716471;83;21077;-80
2022/05/01 10:19:48;;;;;;;4.20;3.02;;;;;;;;;;1716570;83;21041;-80
2022/05/01 10:22:14;;;;;;;5.37;2.90;;;;;;;;;;1727032;82;21005;-80
2022/05/01 10:24:41;;;;;;;3.40;2.70;;;;;;;;;;1754437;80;21080;-80
2022/05/01 10:27:25;;;;;;;3.80;2.50;;;;;;;;;;1771522;81;21038;-80
2022/05/01 10:32:51;;;;;;;5.00;3.40;;;;;;;;;;1771859;81;21073;-80
2022/05/01 10:35:26;;;;;;;6.58;3.08;;;;;;;;;;1771363;81;21516;-80
2022/05/01 10:38:01;;;;;;;4.20;2.87;;;;;;;;;;1766130;81;21001;-78
2022/05/01 10:40:33;;;;;;;4.03;2.87;;;;;;;;;;1718525;82;21094;-79
2022/05/01 10:43:02;;;;;;;4.30;2.62;;;;;;;;;;1729773;82;21541;-79
2022/05/01 10:45:29;;;;;;;5.95;2.85;;;;;;;;;;1714389;82;21015;-78
2022/05/01 10:47:55;;;;;;;7.12;4.53;;;;;;;;;;1740908;81;21027;-78
2022/05/01 10:50:26;;;;;;;10.98;7.20;;;;;;;;;;1693753;85;21105;-79
2022/05/01 10:53:03;;;;;;;6.17;3.55;;;;;;;;;;1696130;84;21031;-78
2022/05/01 10:55:32;;;;;;;5.95;4.20;;;;;;;;;;1662307;86;21023;-78
2022/05/01 10:58:17;;;;;;;11.05;6.95;;;;;;;;;;1646433;87;21080;-79
2022/05/01 11:00:44;;;;;;;8.78;5.55;;;;;;;;;;1661975;86;21075;-79
2022/05/01 11:03:30;;;;;;;4.92;3.67;;;;;;;;;;1741165;82;21162;-79
2022/05/01 11:05:58;;;;;;;4.20;3.12;;;;;;;;;;1739863;82;21047;-78
2022/05/01 11:08:24;;;;;;;7.33;2.95;;;;;;;;;;1727911;82;21039;-79
2022/05/01 11:10:51;;;;;;;5.22;3.02;;;;;;;;;;1740892;82;21026;-80
2022/05/01 11:13:17;;;;;;;3.62;3.05;;;;;;;;;;1739229;82;21008;-80
2022/05/01 11:15:45;;;;;;;5.92;3.67;;;;;;;;;;1665981;85;21079;-80
2022/05/01 11:18:12;;;;;;;4.83;3.35;;;;;;;;;;1741461;82;21031;-80
2022/05/01 11:20:38;;;;;;;4.20;3.22;;;;;;;;;;1741335;82;21110;-79
2022/05/01 11:23:23;;;;;;;4.47;3.37;;;;;;;;;;1740365;82;21566;-80
2022/05/01 11:25:50;;;;;;;4.58;3.17;;;;;;;;;;1702594;84;21058;-79
2022/05/01 11:28:34;;;;;;;5.33;3.08;;;;;;;;;;1682374;85;21066;-81
2022/05/01 11:31:01;;;;;;;5.15;3.10;;;;;;;;;;1746980;82;21586;-79
2022/05/01 11:33:30;;;;;;;5.22;3.62;;;;;;;;;;1748266;82;21081;-79
2022/05/01 11:36:01;;;;;;;5.03;3.40;;;;;;;;;;1748108;82;21151;-79
2022/05/01 11:38:39;;;;;;;4.87;3.22;;;;;;;;;;1748032;82;21859;-79
2022/05/01 11:41:06;;;;;;;14.38;3.70;;;;;;;;;;1748321;82;21107;-79
2022/05/01 11:43:34;;;;;;;4.12;2.87;;;;;;;;;;1749364;82;21030;-78
2022/05/01 11:46:03;;;;;;;4.37;2.92;;;;;;;;;;1749119;82;21313;-79
2022/05/01 11:48:31;;;;;;;5.35;3.12;;;;;;;;;;1748411;82;21065;-79
2022/05/01 11:50:58;;;;;;;4.78;2.95;;;;;;;;;;1744189;81;21543;-79
2022/05/01 11:53:25;;;;;;;6.10;3.47;;;;;;;;;;1748070;82;21065;-78
2022/05/01 12:04:24;;;;;;;4.30;3.05;;;;;;;;;;1748242;81;21171;-81
2022/05/01 12:07:07;;;;;;;3.98;2.80;;;;;;;;;;1748380;82;21079;-81
2022/05/01 12:09:37;;;;;;;5.65;3.05;;;;;;;;;;1748222;82;21013;-80
2022/05/01 12:12:09;;;;;;;3.85;3.10;;;;;;;;;;1743882;81;20938;-81
2022/05/01 12:14:36;;;;;;;5.10;2.80;;;;;;;;;;1730568;82;21084;-80
2022/05/01 12:17:05;;;;;;;4.47;3.22;;;;;;;;;;1717227;83;21534;-80
2022/05/01 12:19:34;;;;;;;4.65;3.10;;;;;;;;;;1745983;82;21595;-81
2022/05/01 12:22:00;;;;;;;4.75;3.08;;;;;;;;;;1743691;81;21053;-81
2022/05/01 12:24:27;;;;;;;3.83;2.87;;;;;;;;;;1748360;82;21088;-79
2022/05/01 12:26:55;;;;;;;3.80;2.75;;;;;;;;;;1748319;82;21083;-79
2022/05/01 12:29:23;;;;;;;5.42;3.60;;;;;;;;;;1700520;84;21041;-80
2022/05/01 12:31:57;;;;;;;4.53;3.20;;;;;;;;;;1692570;85;21113;-81
2022/05/01 12:34:24;;;;;;;4.67;3.20;;;;;;;;;;1692390;85;21081;-80
2022/05/01 12:36:53;;;;;;;5.05;2.98;;;;;;;;;;1691453;85;21073;-79
2022/05/01 12:39:20;;;;;;;4.47;3.02;;;;;;;;;;1748716;81;21052;-80
2022/05/01 12:45:07;;;;;;;5.87;3.40;;;;;;;;;;1692426;84;21081;-80
2022/05/01 12:47:34;;;;;;;6.78;4.12;;;;;;;;;;1748828;81;21028;-80
2022/05/01 12:50:01;;;;;;;6.20;3.83;;;;;;;;;;1748337;82;21544;-79
2022/05/01 12:52:31;;;;;;;7.85;4.12;;;;;;;;;;1709043;84;21026;-79
2022/05/01 12:55:08;;;;;;;5.87;3.92;;;;;;;;;;1711266;83;21078;-79
2022/05/01 12:57:36;;;;;;;5.50;3.22;;;;;;;;;;1711348;84;21081;-79
2022/05/01 13:00:05;;;;;;;6.22;3.72;;;;;;;;;;1660654;84;21083;-79
2022/05/01 13:02:32;;;;;;;6.33;3.27;;;;;;;;;;1748251;81;21116;-78
2022/05/01 13:04:59;;;;;;;6.17;3.40;;;;;;;;;;1718691;83;21512;-79
2022/05/01 13:07:29;;;;;;;5.00;3.27;;;;;;;;;;1718290;83;21080;-79
2022/05/01 13:09:55;;;;;;;5.12;3.40;;;;;;;;;;1742350;82;21501;-79
2022/05/01 13:12:26;;;;;;;8.60;4.70;;;;;;;;;;1748030;82;21029;-79
2022/05/01 13:14:58;;;;;;;7.92;4.35;;;;;;;;;;1747940;82;21158;-81
2022/05/01 13:17:27;;;;;;;6.40;4.15;;;;;;;;;;1747919;82;21033;-81
2022/05/01 13:19:52;;;;;;;6.62;3.98;;;;;;;;;;1747925;82;21064;-80
2022/05/01 13:22:19;;;;;;;6.87;4.15;;;;;;;;;;1747858;81;21072;-80
2022/05/01 13:24:46;;;;;;;7.60;3.67;;;;;;;;;;1748263;82;21041;-80
2022/05/01 13:27:13;;;;;;;6.15;3.58;;;;;;;;;;1747883;82;21576;-81
2022/05/01 13:29:40;;;;;;;6.97;3.80;;;;;;;;;;1748163;82;21025;-80
2022/05/01 13:32:08;;;;;;;7.67;4.00;;;;;;;;;;1747831;82;21580;-80
2022/05/01 13:34:37;;;;;;;8.75;4.25;;;;;;;;;;1748198;82;21151;-80
2022/05/01 13:37:06;;;;;;;7.97;4.67;;;;;;;;;;1712112;84;21053;-80
2022/05/01 13:45:03;;;;;;;6.08;3.58;;;;;;;;;;1700431;83;21075;-80
2022/05/01 13:47:29;;;;;;;7.55;4.08;;;;;;;;;;1699977;84;21603;-80
2022/05/01 13:49:56;;;;;;;5.75;3.58;;;;;;;;;;1699289;84;21083;-81
2022/05/01 13:52:23;;;;;;;6.03;3.50;;;;;;;;;;1747901;82;21013;-78
2022/05/01 13:54:50;;;;;;;8.58;4.30;;;;;;;;;;1748303;82;21020;-81
2022/05/01 13:57:16;;;;;;;7.53;4.22;;;;;;;;;;1748096;82;21069;-80
2022/05/01 13:59:42;;;;;;;7.75;4.05;;;;;;;;;;1750170;81;21025;-80
2022/05/01 14:02:08;;;;;;;7.65;4.00;;;;;;;;;;1748321;81;21084;-81
2022/05/01 14:04:34;;;;;;;9.35;4.17;;;;;;;;;;1745845;81;21552;-79
2022/05/01 14:07:01;;;;;;;7.60;3.95;;;;;;;;;;1748182;82;21076;-80
2022/05/01 14:09:27;;;;;;;6.15;3.83;;;;;;;;;;1748032;82;21104;-79
2022/05/01 14:11:55;;;;;;;6.58;3.83;;;;;;;;;;1747675;82;21033;-78
2022/05/01 14:14:21;;;;;;;6.75;3.67;;;;;;;;;;1754361;80;21037;-79
2022/05/01 14:16:47;;;;;;;6.45;3.87;;;;;;;;;;1747797;82;21064;-79
2022/05/01 14:19:21;;;;;;;13.83;4.55;;;;;;;;;;1748225;82;21013;-79
2022/05/01 14:21:47;;;;;;;7.47;3.92;;;;;;;;;;1712775;82;21036;-78
2022/05/01 14:24:15;;;;;;;6.85;3.83;;;;;;;;;;1692294;85;21146;-79
2022/05/01 14:26:43;;;;;;;5.95;3.40;;;;;;;;;;1688445;82;21053;-80
2022/05/01 14:29:10;;;;;;;6.92;3.58;;;;;;;;;;1654380;85;21073;-79
2022/05/01 14:31:50;;;;;;;6.92;3.60;;;;;;;;;;1679720;85;21033;-78
2022/05/01 14:34:20;;;;;;;4.85;3.52;;;;;;;;;;1717184;83;21081;-79
2022/05/01 14:36:47;;;;;;;5.42;3.27;;;;;;;;;;1739074;82;21076;-80
2022/05/01 14:39:13;;;;;;;5.78;3.58;;;;;;;;;;1730903;82;20969;-80
2022/05/01 14:41:49;;;;;;;5.05;3.40;;;;;;;;;;1690468;85;21037;-79
2022/05/01 14:44:14;;;;;;;5.22;3.50;;;;;;;;;;1671185;85;21081;-79
2022/05/01 14:46:45;;;;;;;5.20;3.40;;;;;;;;;;1710072;84;21127;-76
2022/05/01 14:49:19;;;;;;;5.85;3.33;;;;;;;;;;1686126;82;21023;-78
2022/05/01 14:51:48;;;;;;;6.70;3.58;;;;;;;;;;1738400;82;21103;-77
2022/05/01 14:54:16;;;;;;;5.58;3.20;;;;;;;;;;1753757;81;21055;-79
2022/05/01 14:56:42;;;;;;;5.60;3.05;;;;;;;;;;1755903;81;21556;-78
2022/05/01 15:07:23;;;;;;;5.55;3.35;;;;;;;;;;1754654;81;21036;-81
2022/05/01 15:09:50;;;;;;;3.77;2.80;;;;;;;;;;1723369;82;21065;-81
2022/05/01 15:12:16;;;;;;;5.25;3.00;;;;;;;;;;1734725;81;21021;-81
2022/05/01 15:14:42;;;;;;;3.92;2.60;;;;;;;;;;1734319;82;21084;-81
2022/05/01 15:17:10;;;;;;;4.30;2.47;;;;;;;;;;1756310;81;21225;-80
2022/05/01 15:19:45;;;;;;;3.20;2.33;;;;;;;;;;1763672;81;21019;-80
2022/05/01 15:22:22;;;;;;;3.52;2.30;;;;;;;;;;1763607;81;21007;-81
2022/05/01 15:25:06;;;;;;;3.22;2.37;;;;;;;;;;1753412;81;21084;-81
2022/05/01 15:27:39;;;;;;;4.42;2.33;;;;;;;;;;1722774;83;21048;-80